Time;durP1;ratioP1;P1;durP2;ratioP2;P2;SDS_P1;SDS_P2;PMS_P1;PMS_P2;Temp;Humidity;BMP_temperature;BMP_pressure;BME280_temperature;BME280_humidity;BME280_pressure;Samples;Min_cycle;Max_cycle;Signal;HPM_P1;HPM_P2
2023/09/21 00:00:56;;;;;;;;;;;;;;;23.41;50.94;99007.53;5093577;28;20023;-65
2023/09/21 00:03:21;;;;;;;;;;;;;;;23.49;50.29;98995.81;5057298;28;19913;-65
2023/09/21 00:05:47;;;;;;;;;;;;;;;23.43;50.60;98999.81;5055740;28;19920;-64
2023/09/21 00:08:12;;;;;;;;;;;;;;;23.38;50.94;99003.50;5055742;28;20423;-65
2023/09/21 00:10:39;;;;;;;;;;;;;;;23.44;50.50;99000.63;5047668;28;19912;-65
2023/09/21 00:13:04;;;;;;;;;;;;;;;23.43;50.88;99007.22;5075661;28;19920;-65
2023/09/21 00:15:30;;;;;;;;;;;;;;;23.42;50.77;99011.91;5060438;28;20285;-65
2023/09/21 00:17:58;;;;;;;;;;;;;;;23.43;50.95;99009.97;5075720;28;19912;-65
2023/09/21 00:20:25;;;;;;;;;;;;;;;23.37;50.79;99006.56;5075509;28;20289;-65
2023/09/21 00:22:53;;;;;;;;;;;;;;;23.52;50.04;99014.38;5075418;28;20038;-65
2023/09/21 00:25:19;;;;;;;;;;;;;;;23.52;50.65;99006.16;5075638;28;19913;-65
2023/09/21 00:27:44;;;;;;;;;;;;;;;23.48;50.36;99010.66;5083684;28;19920;-65
2023/09/21 00:30:10;;;;;;;;;;;;;;;23.38;50.51;98992.56;5075837;28;19916;-65
2023/09/21 00:32:39;;;;;;;;;;;;;;;23.51;50.68;98993.59;5075214;28;19935;-65
2023/09/21 00:35:09;;;;;;;;;;;;;;;23.37;51.00;99001.09;5075041;28;19920;-65
2023/09/21 00:37:35;;;;;;;;;;;;;;;23.32;51.00;98999.28;5075602;28;19912;-65
2023/09/21 00:40:00;;;;;;;;;;;;;;;23.25;51.25;98992.63;5075017;28;20284;-65
2023/09/21 00:42:25;;;;;;;;;;;;;;;23.25;51.41;98998.91;5075022;28;19917;-65
2023/09/21 00:44:51;;;;;;;;;;;;;;;23.30;51.30;98996.03;5075096;28;20376;-65
2023/09/21 00:47:17;;;;;;;;;;;;;;;23.27;51.27;98998.59;5074733;28;19913;-65
2023/09/21 00:49:42;;;;;;;;;;;;;;;23.30;50.96;99004.25;5075151;28;20276;-65
2023/09/21 00:52:11;;;;;;;;;;;;;;;23.32;51.36;99003.94;5075099;28;19958;-65
2023/09/21 00:54:38;;;;;;;;;;;;;;;23.22;51.55;98996.81;5074507;28;19923;-65
2023/09/21 00:57:05;;;;;;;;;;;;;;;23.28;51.42;98992.00;5093581;28;19927;-65
2023/09/21 00:59:35;;;;;;;;;;;;;;;23.30;50.89;98976.88;5074986;28;19917;-65
2023/09/21 01:02:01;;;;;;;;;;;;;;;23.18;51.39;98985.69;5067239;28;19928;-65
2023/09/21 01:04:27;;;;;;;;;;;;;;;23.14;51.85;98984.69;5054537;28;19913;-65
2023/09/21 01:06:54;;;;;;;;;;;;;;;23.10;51.96;98986.41;5054772;28;20008;-65
2023/09/21 01:09:19;;;;;;;;;;;;;;;23.05;52.21;98975.63;5054448;28;19920;-64
2023/09/21 01:11:45;;;;;;;;;;;;;;;23.06;51.90;98992.84;5073151;28;19935;-64
2023/09/21 01:14:10;;;;;;;;;;;;;;;23.05;52.15;98978.34;5074351;28;19916;-65
2023/09/21 01:16:35;;;;;;;;;;;;;;;23.22;51.69;98983.13;5086820;28;20065;-65
2023/09/21 01:19:00;;;;;;;;;;;;;;;23.15;52.00;98989.03;5094509;28;20293;-65
2023/09/21 01:21:34;;;;;;;;;;;;;;;23.18;51.92;98977.47;5063140;28;19916;-65
2023/09/21 01:23:59;;;;;;;;;;;;;;;23.17;52.09;98967.63;5074281;28;19912;-65
2023/09/21 01:26:24;;;;;;;;;;;;;;;23.12;52.57;98975.16;5073941;28;19912;-64
2023/09/21 01:28:50;;;;;;;;;;;;;;;23.19;52.01;98975.53;5073781;28;19927;-64
2023/09/21 01:31:15;;;;;;;;;;;;;;;23.14;51.82;98970.16;5056081;28;19913;-64
2023/09/21 01:33:44;;;;;;;;;;;;;;;23.13;52.16;98957.63;5073870;28;20262;-64
2023/09/21 01:36:12;;;;;;;;;;;;;;;23.05;52.58;98961.94;5074155;28;20058;-65
2023/09/21 01:38:38;;;;;;;;;;;;;;;23.11;52.28;98971.63;5073743;28;20595;-65
2023/09/21 01:41:03;;;;;;;;;;;;;;;23.17;52.02;98964.88;5074016;28;19999;-64
2023/09/21 01:43:29;;;;;;;;;;;;;;;23.15;52.27;98969.06;5073674;28;19912;-65
2023/09/21 01:45:54;;;;;;;;;;;;;;;23.23;51.95;98976.50;5073926;28;19920;-65
2023/09/21 01:48:20;;;;;;;;;;;;;;;23.28;51.83;98954.47;5073666;28;19927;-65
2023/09/21 01:50:50;;;;;;;;;;;;;;;23.22;51.82;98974.09;5055924;28;19919;-65
2023/09/21 01:53:19;;;;;;;;;;;;;;;23.20;51.66;98974.41;5072671;28;19913;-65
2023/09/21 01:55:47;;;;;;;;;;;;;;;23.22;52.28;98961.22;5071157;28;20015;-65
2023/09/21 01:58:13;;;;;;;;;;;;;;;23.20;52.14;98957.97;5093956;28;19961;-65
2023/09/21 02:00:39;;;;;;;;;;;;;;;23.16;52.15;98963.28;5093241;28;19912;-65
2023/09/21 02:03:06;;;;;;;;;;;;;;;23.10;52.57;98967.25;5077622;28;19944;-64
2023/09/21 02:05:32;;;;;;;;;;;;;;;23.15;52.52;98966.31;5073516;28;19919;-65
2023/09/21 02:07:58;;;;;;;;;;;;;;;23.08;53.04;98974.19;5073207;28;20006;-65
2023/09/21 02:10:24;;;;;;;;;;;;;;;23.04;52.92;98978.66;5065525;28;19913;-65
2023/09/21 02:12:52;;;;;;;;;;;;;;;22.97;52.82;98968.94;5053742;28;19940;-65
2023/09/21 02:15:17;;;;;;;;;;;;;;;23.00;52.77;98971.03;5055802;28;19917;-65
2023/09/21 02:17:43;;;;;;;;;;;;;;;22.93;53.17;98967.94;5093834;28;19912;-65
2023/09/21 02:20:13;;;;;;;;;;;;;;;23.06;52.78;98973.69;5093606;28;19923;-65
2023/09/21 02:22:39;;;;;;;;;;;;;;;23.08;52.76;98965.97;5093577;28;19916;-65
2023/09/21 02:25:10;;;;;;;;;;;;;;;23.03;52.81;98966.88;5093760;28;19917;-65
2023/09/21 02:27:40;;;;;;;;;;;;;;;23.12;53.05;98975.16;5086066;28;19919;-65
2023/09/21 02:30:06;;;;;;;;;;;;;;;23.12;53.27;98966.94;5073102;28;19999;-65
2023/09/21 02:32:33;;;;;;;;;;;;;;;23.05;53.11;98953.72;5073214;28;19951;-65
2023/09/21 02:34:59;;;;;;;;;;;;;;;22.96;53.62;98959.09;5073017;28;19916;-65
2023/09/21 02:37:25;;;;;;;;;;;;;;;22.92;53.47;98958.13;5073287;28;19978;-65
2023/09/21 02:39:50;;;;;;;;;;;;;;;22.96;53.21;98972.00;5073413;28;19921;-65
2023/09/21 02:42:18;;;;;;;;;;;;;;;22.88;53.43;98957.13;5073322;28;19917;-65
2023/09/21 02:44:45;;;;;;;;;;;;;;;22.87;53.70;98977.41;5073263;28;20354;-65
2023/09/21 02:47:11;;;;;;;;;;;;;;;22.92;53.77;98962.75;5073435;28;19912;-65
2023/09/21 02:49:36;;;;;;;;;;;;;;;22.84;53.83;98961.59;5073004;28;19916;-65
2023/09/21 02:52:04;;;;;;;;;;;;;;;22.91;53.77;98966.63;5073012;28;19916;-64
2023/09/21 02:54:29;;;;;;;;;;;;;;;22.86;54.12;98959.34;5072531;28;19913;-64
2023/09/21 02:56:54;;;;;;;;;;;;;;;22.91;53.64;98961.16;5072889;28;19916;-64
2023/09/21 02:59:19;;;;;;;;;;;;;;;22.94;53.60;98955.06;5072949;28;20011;-64
2023/09/21 03:01:45;;;;;;;;;;;;;;;23.06;53.26;98957.25;5073122;28;19912;-65
2023/09/21 03:04:12;;;;;;;;;;;;;;;22.96;53.85;98955.56;5073137;28;19917;-65
2023/09/21 03:06:37;;;;;;;;;;;;;;;22.96;53.57;98955.56;5072876;28;19923;-65
2023/09/21 03:09:03;;;;;;;;;;;;;;;23.00;53.49;98953.81;5072737;28;19921;-65
2023/09/21 03:11:29;;;;;;;;;;;;;;;23.06;53.56;98941.63;5058274;28;20297;-65
2023/09/21 03:13:55;;;;;;;;;;;;;;;22.95;53.83;98948.47;5056749;28;20003;-65
2023/09/21 03:16:21;;;;;;;;;;;;;;;22.88;54.01;98946.19;5076480;28;19924;-65
2023/09/21 03:18:47;;;;;;;;;;;;;;;22.84;54.14;98955.31;5097102;28;19918;-65
2023/09/21 03:21:15;;;;;;;;;;;;;;;22.86;53.73;98940.19;5096937;28;19912;-65
2023/09/21 03:23:41;;;;;;;;;;;;;;;22.87;53.65;98952.75;5079249;28;20007;-65
2023/09/21 03:26:10;;;;;;;;;;;;;;;22.95;53.36;98953.94;5097128;28;20002;-65
2023/09/21 03:28:37;;;;;;;;;;;;;;;23.03;53.32;98946.88;5081124;28;19912;-65
2023/09/21 03:31:02;;;;;;;;;;;;;;;23.10;53.20;98944.53;5076545;28;19916;-65
2023/09/21 03:33:27;;;;;;;;;;;;;;;23.12;53.45;98939.56;5076634;28;19913;-65
2023/09/21 03:35:54;;;;;;;;;;;;;;;23.08;53.20;98933.91;5076334;28;19963;-65
2023/09/21 03:38:19;;;;;;;;;;;;;;;23.10;53.13;98937.13;5076551;28;19913;-65
2023/09/21 03:40:44;;;;;;;;;;;;;;;22.92;53.58;98938.13;5076674;28;20266;-65
2023/09/21 03:43:10;;;;;;;;;;;;;;;22.85;53.92;98941.31;5076339;28;19924;-65
2023/09/21 03:45:39;;;;;;;;;;;;;;;22.88;53.91;98940.72;5076320;28;19919;-65
2023/09/21 03:48:08;;;;;;;;;;;;;;;22.83;54.14;98932.63;5055989;28;19966;-65
2023/09/21 03:50:34;;;;;;;;;;;;;;;22.95;53.63;98935.56;5072342;28;19919;-65
2023/09/21 03:52:59;;;;;;;;;;;;;;;22.98;53.47;98937.69;5076317;28;20292;-65
2023/09/21 03:55:25;;;;;;;;;;;;;;;22.92;53.83;98941.69;5081483;28;19916;-64
2023/09/21 03:57:50;;;;;;;;;;;;;;;22.82;53.80;98931.00;5096666;28;19920;-64
2023/09/21 04:02:50;;;;;;;;;;;;;;;22.80;54.29;98950.47;5062368;28;19943;-65
2023/09/21 04:05:18;;;;;;;;;;;;;;;22.84;53.93;98956.13;5056141;28;19913;-64
2023/09/21 04:07:47;;;;;;;;;;;;;;;22.95;53.74;98952.00;5055626;28;19919;-64
2023/09/21 04:10:12;;;;;;;;;;;;;;;23.06;53.48;98963.53;5061781;28;19961;-64
2023/09/21 04:12:41;;;;;;;;;;;;;;;22.99;53.64;98952.19;5076079;28;19912;-63
2023/09/21 04:15:07;;;;;;;;;;;;;;;23.13;53.33;98941.19;5075741;28;19920;-63
2023/09/21 04:17:32;;;;;;;;;;;;;;;23.10;53.23;98944.53;5095666;28;19912;-64
2023/09/21 04:19:57;;;;;;;;;;;;;;;23.21;52.88;98948.63;5095817;28;19926;-64
2023/09/21 04:22:22;;;;;;;;;;;;;;;23.08;52.84;98955.81;5094854;28;19912;-65
2023/09/21 04:24:48;;;;;;;;;;;;;;;23.16;52.92;98933.16;5096029;28;19912;-64
2023/09/21 04:27:13;;;;;;;;;;;;;;;23.24;52.71;98937.03;5094761;28;20353;-64
2023/09/21 04:29:38;;;;;;;;;;;;;;;23.24;52.69;98925.28;5080408;28;19920;-64
2023/09/21 04:32:04;;;;;;;;;;;;;;;23.29;52.36;98934.19;5075342;28;19919;-64
2023/09/21 04:34:31;;;;;;;;;;;;;;;23.25;52.34;98929.63;5075693;28;20053;-64
2023/09/21 04:36:56;;;;;;;;;;;;;;;23.28;52.22;98934.50;5075236;28;19923;-64
2023/09/21 04:39:22;;;;;;;;;;;;;;;23.28;52.27;98934.50;5075265;28;20275;-64
2023/09/21 04:41:48;;;;;;;;;;;;;;;23.33;51.88;98950.78;5075095;28;20438;-64
2023/09/21 04:44:14;;;;;;;;;;;;;;;23.27;52.19;98930.94;5075003;28;19956;-65
2023/09/21 04:46:41;;;;;;;;;;;;;;;23.32;51.67;98939.00;5074997;28;19912;-65
2023/09/21 04:49:07;;;;;;;;;;;;;;;23.34;51.33;98935.97;5075194;28;19935;-65
2023/09/21 04:51:33;;;;;;;;;;;;;;;23.24;51.73;98939.78;5075018;28;19935;-65
2023/09/21 04:53:58;;;;;;;;;;;;;;;23.35;51.86;98932.09;5074458;28;19917;-65
2023/09/21 04:56:23;;;;;;;;;;;;;;;23.44;51.33;98940.34;5089214;28;19920;-65
2023/09/21 04:58:50;;;;;;;;;;;;;;;23.38;51.61;98937.75;5077973;28;20011;-65
2023/09/21 05:01:16;;;;;;;;;;;;;;;23.36;51.69;98937.28;5073822;28;20353;-65
2023/09/21 05:03:41;;;;;;;;;;;;;;;23.31;51.91;98936.56;5054838;28;19912;-65
2023/09/21 05:06:06;;;;;;;;;;;;;;;23.32;51.89;98930.78;5054754;28;19913;-65
2023/09/21 05:08:36;;;;;;;;;;;;;;;23.38;51.36;98929.53;5054583;28;19943;-65
2023/09/21 05:11:01;;;;;;;;;;;;;;;23.50;50.93;98937.16;5067267;28;19916;-65
2023/09/21 05:13:27;;;;;;;;;;;;;;;23.47;50.71;98928.75;5074814;28;19917;-65
2023/09/21 05:15:53;;;;;;;;;;;;;;;23.42;51.38;98932.47;5080627;28;20369;-65
2023/09/21 05:18:18;;;;;;;;;;;;;;;23.37;51.56;98935.34;5094938;28;19912;-65
2023/09/21 05:20:45;;;;;;;;;;;;;;;23.43;51.20;98923.09;5094960;28;19919;-65
2023/09/21 05:23:10;;;;;;;;;;;;;;;23.28;50.90;98932.53;5092031;28;19912;-65
2023/09/21 05:25:35;;;;;;;;;;;;;;;23.48;51.27;98931.19;5074245;28;19913;-65
2023/09/21 05:28:01;;;;;;;;;;;;;;;23.66;50.75;98921.09;5083236;28;19912;-65
2023/09/21 05:30:28;;;;;;;;;;;;;;;23.71;50.45;98933.81;5074543;28;20322;-65
2023/09/21 05:32:56;;;;;;;;;;;;;;;23.68;50.50;98926.22;5074288;28;19920;-65
2023/09/21 05:35:23;;;;;;;;;;;;;;;23.74;50.13;98923.03;5039434;28;20325;-65
2023/09/21 05:37:48;;;;;;;;;;;;;;;23.73;50.16;98934.31;5074475;28;19916;-65
2023/09/21 05:40:14;;;;;;;;;;;;;;;23.67;50.19;98933.66;5056719;28;20426;-66
2023/09/21 05:42:41;;;;;;;;;;;;;;;23.61;50.84;98947.84;5054077;28;19913;-65
2023/09/21 05:45:07;;;;;;;;;;;;;;;23.59;50.30;98939.94;5054158;28;19912;-64
2023/09/21 05:47:32;;;;;;;;;;;;;;;23.71;50.46;98926.41;5053736;28;19920;-64
2023/09/21 05:49:57;;;;;;;;;;;;;;;23.75;49.94;98943.84;5064965;28;19919;-63
2023/09/21 05:52:24;;;;;;;;;;;;;;;23.78;50.19;98945.13;5073849;28;20292;-64
2023/09/21 05:54:49;;;;;;;;;;;;;;;23.74;49.84;98939.47;5074566;28;19963;-64
2023/09/21 05:57:15;;;;;;;;;;;;;;;23.78;50.12;98939.66;5093861;28;19993;-64
2023/09/21 05:59:41;;;;;;;;;;;;;;;23.77;50.17;98938.84;5093951;28;20052;-64
2023/09/21 06:02:08;;;;;;;;;;;;;;;23.77;50.11;98936.09;5086115;28;20007;-64
2023/09/21 06:04:36;;;;;;;;;;;;;;;23.80;49.96;98931.13;5073827;28;19913;-64
2023/09/21 06:07:02;;;;;;;;;;;;;;;23.76;49.84;98926.25;5073933;28;20043;-64
2023/09/21 06:09:29;;;;;;;;;;;;;;;23.80;49.42;98920.19;5073413;28;19932;-64
2023/09/21 06:11:54;;;;;;;;;;;;;;;23.74;49.62;98930.44;5053807;28;19944;-64
2023/09/21 06:14:20;;;;;;;;;;;;;;;23.80;49.46;98922.91;5053788;28;20380;-64
2023/09/21 06:16:46;;;;;;;;;;;;;;;23.75;49.73;98916.44;5080564;28;19923;-64
2023/09/21 06:19:12;;;;;;;;;;;;;;;23.88;49.76;98909.19;5092955;28;19912;-64
2023/09/21 06:21:39;;;;;;;;;;;;;;;23.73;49.78;98926.88;5073672;28;19913;-64
2023/09/21 06:24:05;;;;;;;;;;;;;;;23.71;50.33;98904.47;5073480;28;20246;-65
2023/09/21 06:26:30;;;;;;;;;;;;;;;23.77;49.90;98902.38;5073359;28;19917;-65
2023/09/21 06:28:55;;;;;;;;;;;;;;;23.65;50.27;98919.47;5082083;28;19912;-64
2023/09/21 06:31:21;;;;;;;;;;;;;;;23.66;50.16;98915.59;5073649;28;20357;-65
2023/09/21 06:33:46;;;;;;;;;;;;;;;23.71;50.57;98917.38;5072860;28;19913;-65
2023/09/21 06:36:20;;;;;;;;;;;;;;;23.72;50.21;98919.81;5063291;28;19920;-66
2023/09/21 06:38:46;;;;;;;;;;;;;;;23.58;51.09;98924.59;5064008;28;20288;-65
2023/09/21 06:41:12;;;;;;;;;;;;;;;23.54;51.28;98931.84;5054843;28;19920;-64
2023/09/21 06:43:38;;;;;;;;;;;;;;;23.60;51.01;98925.09;5062108;28;19916;-64
2023/09/21 06:46:07;;;;;;;;;;;;;;;23.52;51.04;98923.13;5065863;28;19912;-64
2023/09/21 06:48:32;;;;;;;;;;;;;;;23.60;51.26;98922.34;5077100;28;19919;-64
2023/09/21 06:50:57;;;;;;;;;;;;;;;23.66;50.94;98926.56;5077137;28;19912;-65
2023/09/21 06:53:23;;;;;;;;;;;;;;;23.66;51.02;98931.22;5077340;28;19978;-64
2023/09/21 06:55:49;;;;;;;;;;;;;;;23.71;50.85;98940.09;5076590;28;19916;-65
2023/09/21 06:58:14;;;;;;;;;;;;;;;23.67;50.87;98939.13;5076884;28;19959;-64
2023/09/21 07:00:39;;;;;;;;;;;;;;;23.80;50.49;98934.69;5077286;28;19917;-64
2023/09/21 07:03:05;;;;;;;;;;;;;;;23.80;50.34;98934.69;5060404;28;19995;-63
2023/09/21 07:05:30;;;;;;;;;;;;;;;23.85;50.34;98931.00;5055721;28;20366;-62
2023/09/21 07:07:55;;;;;;;;;;;;;;;23.74;50.32;98930.44;5055632;28;19994;-63
2023/09/21 07:10:20;;;;;;;;;;;;;;;23.77;50.25;98938.84;5037949;28;20383;-63
2023/09/21 07:12:46;;;;;;;;;;;;;;;23.76;49.91;98937.22;5055586;28;20003;-63
2023/09/21 07:15:12;;;;;;;;;;;;;;;23.78;50.07;98936.91;5056906;28;19913;-63
2023/09/21 07:17:37;;;;;;;;;;;;;;;23.83;49.80;98944.19;5078080;28;19920;-63
2023/09/21 07:20:06;;;;;;;;;;;;;;;23.75;50.10;98934.78;5076711;28;19912;-63
2023/09/21 07:22:32;;;;;;;;;;;;;;;23.70;49.65;98943.16;5076723;28;19919;-63
2023/09/21 07:24:58;;;;;;;;;;;;;;;23.68;49.89;98935.28;5077054;28;19913;-63
2023/09/21 07:27:24;;;;;;;;;;;;;;;23.70;49.91;98933.03;5082358;28;19912;-63
2023/09/21 07:29:50;;;;;;;;;;;;;;;23.80;49.35;98931.13;5079548;28;19919;-64
2023/09/21 07:32:16;;;;;;;;;;;;;;;23.90;49.12;98933.56;5062859;28;19928;-64
2023/09/21 07:34:41;;;;;;;;;;;;;;;23.84;48.94;98919.19;5056345;28;20270;-64
2023/09/21 07:37:10;;;;;;;;;;;;;;;23.87;48.92;98926.00;5056373;28;19916;-63
2023/09/21 07:39:35;;;;;;;;;;;;;;;23.83;49.17;98936.78;5056718;28;20324;-63
2023/09/21 07:42:04;;;;;;;;;;;;;;;23.74;48.99;98944.97;5056583;28;19923;-64
2023/09/21 07:44:30;;;;;;;;;;;;;;;23.80;49.09;98934.69;5055975;28;19917;-63
2023/09/21 07:46:57;;;;;;;;;;;;;;;23.93;48.88;98938.41;5067593;28;19918;-63
2023/09/21 07:49:25;;;;;;;;;;;;;;;23.90;48.94;98933.56;5076018;28;19916;-64
2023/09/21 07:51:50;;;;;;;;;;;;;;;23.96;48.60;98924.88;5075998;28;19918;-64
2023/09/21 07:54:16;;;;;;;;;;;;;;;24.05;48.61;98926.81;5075516;28;19913;-63
2023/09/21 07:56:42;;;;;;;;;;;;;;;24.13;48.20;98928.75;5092002;28;19954;-63
2023/09/21 07:59:09;;;;;;;;;;;;;;;24.06;48.46;98929.22;5095671;28;19912;-64
2023/09/21 08:01:35;;;;;;;;;;;;;;;24.09;48.30;98923.13;5092673;28;19916;-64
2023/09/21 08:04:01;;;;;;;;;;;;;;;24.11;48.15;98925.53;5076070;28;19917;-62
2023/09/21 08:06:28;;;;;;;;;;;;;;;24.28;47.79;98924.75;5076004;28;19920;-62
2023/09/21 08:08:54;;;;;;;;;;;;;;;24.37;47.28;98920.06;5075459;28;19965;-62
2023/09/21 08:11:19;;;;;;;;;;;;;;;24.41;47.43;98918.28;5060199;28;20004;-62
2023/09/21 08:13:44;;;;;;;;;;;;;;;24.50;47.31;98899.84;5073122;28;19916;-64
2023/09/21 08:16:09;;;;;;;;;;;;;;;24.55;46.91;98907.13;5083773;28;19927;-62
2023/09/21 08:18:37;;;;;;;;;;;;;;;24.59;46.76;98899.06;5095930;28;20352;-62
2023/09/21 08:21:04;;;;;;;;;;;;;;;24.64;46.47;98907.94;5095566;28;19924;-62
2023/09/21 08:23:30;;;;;;;;;;;;;;;24.75;46.59;98910.34;5095815;28;20416;-62
2023/09/21 08:25:55;;;;;;;;;;;;;;;24.77;46.71;98914.38;5095526;28;19955;-62
2023/09/21 08:28:20;;;;;;;;;;;;;;;24.82;46.93;98919.69;5075020;28;19965;-62
2023/09/21 08:30:47;;;;;;;;;;;;;;;24.95;46.82;98917.09;5075438;28;20002;-62
2023/09/21 08:33:12;;;;;;;;;;;;;;;25.12;45.95;98917.03;5075375;28;19920;-62
2023/09/21 08:35:38;;;;;;;;;;;;;;;25.27;46.39;98924.75;5075241;28;19916;-62
2023/09/21 08:38:03;;;;;;;;;;;;;;;25.46;45.96;98912.53;5075423;28;19947;-62
2023/09/21 08:40:29;;;;;;;;;;;;;;;25.54;45.79;98919.94;5075100;28;19916;-64
2023/09/21 08:42:55;;;;;;;;;;;;;;;25.51;44.88;98912.34;5075180;28;20327;-63
2023/09/21 08:45:22;;;;;;;;;;;;;;;25.36;45.33;98916.47;5074955;28;19916;-63
2023/09/21 08:47:48;;;;;;;;;;;;;;;25.38;45.20;98916.16;5075361;28;20333;-62
2023/09/21 08:50:16;;;;;;;;;;;;;;;25.54;45.71;98921.88;5075107;28;19912;-64
2023/09/21 08:52:42;;;;;;;;;;;;;;;25.50;45.79;98918.97;5075003;28;19924;-63
2023/09/21 08:55:10;;;;;;;;;;;;;;;25.56;45.19;98920.41;5078320;28;19913;-63
2023/09/21 08:57:36;;;;;;;;;;;;;;;25.59;45.51;98927.19;5095213;28;19916;-63
2023/09/21 09:00:06;;;;;;;;;;;;;;;25.49;45.72;98923.69;5095193;28;20386;-63
2023/09/21 09:02:35;;;;;;;;;;;;;;;25.34;45.29;98920.69;5065384;28;19916;-64
2023/09/21 09:05:09;;;;;;;;;;;;;;;25.46;45.78;98926.28;5074607;28;19919;-64
2023/09/21 09:07:41;;;;;;;;;;;;;;;25.48;44.70;98915.75;5074395;28;20015;-63
2023/09/21 09:10:09;;;;;;;;;;;;;;;25.48;45.76;98927.56;5074085;28;19934;-62
2023/09/21 09:12:35;;;;;;;;;;;;;;;25.39;45.39;98926.81;5074373;28;19917;-63
2023/09/21 09:15:02;;;;;;;;;;;;;;;25.25;45.34;98917.97;5074764;28;19916;-63
2023/09/21 09:17:28;;;;;;;;;;;;;;;25.32;45.63;98920.22;5093661;28;19927;-63
2023/09/21 09:19:54;;;;;;;;;;;;;;;25.20;46.26;98918.91;5094698;28;19912;-63
2023/09/21 09:22:19;;;;;;;;;;;;;;;25.25;46.08;98913.28;5094596;28;19912;-63
2023/09/21 09:24:45;;;;;;;;;;;;;;;25.27;45.88;98916.50;5081464;28;19957;-63
2023/09/21 09:27:10;;;;;;;;;;;;;;;25.25;45.98;98913.28;5078144;28;20360;-63
2023/09/21 09:29:46;;;;;;;;;;;;;;;25.23;45.99;98912.81;5079168;28;19936;-63
2023/09/21 09:32:14;;;;;;;;;;;;;;;25.27;46.29;98918.44;5074207;28;19916;-63
2023/09/21 09:34:40;;;;;;;;;;;;;;;25.21;46.20;98930.72;5056502;28;19947;-62
2023/09/21 09:37:05;;;;;;;;;;;;;;;25.16;46.38;98906.97;5074068;28;19985;-63
2023/09/21 09:39:33;;;;;;;;;;;;;;;25.25;45.77;98913.28;5074083;28;19917;-63
2023/09/21 09:41:59;;;;;;;;;;;;;;;25.40;46.40;98911.91;5073770;28;19912;-62
2023/09/21 09:44:28;;;;;;;;;;;;;;;25.35;45.83;98905.81;5073669;28;19935;-63
2023/09/21 09:46:56;;;;;;;;;;;;;;;25.24;45.73;98900.69;5073737;28;19982;-63
2023/09/21 09:49:25;;;;;;;;;;;;;;;25.19;46.14;98902.78;5073613;28;19922;-63
2023/09/21 09:51:53;;;;;;;;;;;;;;;25.04;45.83;98904.94;5073857;28;19913;-63
2023/09/21 09:54:21;;;;;;;;;;;;;;;25.10;46.54;98913.81;5073212;28;19991;-63
2023/09/21 09:56:48;;;;;;;;;;;;;;;25.04;46.38;98895.91;5089876;28;19954;-62
2023/09/21 09:59:15;;;;;;;;;;;;;;;25.14;45.76;98905.72;5036256;28;19913;-64
2023/09/21 10:01:44;;;;;;;;;;;;;;;25.19;46.33;98900.84;5053237;28;20007;-63
2023/09/21 10:04:09;;;;;;;;;;;;;;;25.16;46.11;98897.94;5053735;28;19949;-65
2023/09/21 10:06:36;;;;;;;;;;;;;;;25.21;46.08;98895.03;5073464;28;19940;-63
2023/09/21 10:09:03;;;;;;;;;;;;;;;25.22;45.95;98900.19;5073276;28;19920;-62
2023/09/21 10:11:29;;;;;;;;;;;;;;;25.15;45.90;98899.06;5056702;28;19955;-62
2023/09/21 10:13:55;;;;;;;;;;;;;;;25.17;45.87;98894.88;5053642;28;19959;-63
2023/09/21 10:16:24;;;;;;;;;;;;;;;25.10;45.44;98900.06;5073009;28;19920;-63
2023/09/21 10:18:55;;;;;;;;;;;;;;;25.25;46.18;98898.75;5093631;28;19912;-63
2023/09/21 10:21:23;;;;;;;;;;;;;;;25.19;46.03;98887.09;5058594;28;20011;-62
2023/09/21 10:24:07;;;;;;;;;;;;;;;25.19;46.05;98895.34;5073242;28;19963;-63
2023/09/21 10:26:38;;;;;;;;;;;;;;;25.33;46.08;98897.88;5073236;28;19913;-63
2023/09/21 10:29:04;;;;;;;;;;;;;;;25.24;45.94;98906.19;5082114;28;19913;-63
2023/09/21 10:31:31;;;;;;;;;;;;;;;25.18;45.90;98899.22;5073218;28;19912;-64
2023/09/21 10:33:56;;;;;;;;;;;;;;;25.11;45.74;98893.41;5073042;28;19912;-62
2023/09/21 10:36:21;;;;;;;;;;;;;;;25.23;45.57;98900.97;5073138;28;19920;-64
2023/09/21 10:39:05;;;;;;;;;;;;;;;25.17;45.42;98913.31;5073279;28;19994;-63
2023/09/21 10:41:31;;;;;;;;;;;;;;;25.08;45.46;98894.09;5073500;28;19941;-63
2023/09/21 10:43:56;;;;;;;;;;;;;;;24.95;45.75;98903.34;5073063;28;20354;-63
2023/09/21 10:46:23;;;;;;;;;;;;;;;24.91;45.88;98904.00;5073029;28;19962;-63
2023/09/21 10:49:15;;;;;;;;;;;;;;;24.84;46.39;98902.91;5073409;28;19919;-64
2023/09/21 10:51:40;;;;;;;;;;;;;;;24.75;47.08;98894.66;5068186;28;19916;-63
2023/09/21 10:54:10;;;;;;;;;;;;;;;24.86;46.66;98912.41;5072447;28;20255;-63
2023/09/21 10:56:41;;;;;;;;;;;;;;;24.91;46.94;98914.19;5089229;28;19935;-63
2023/09/21 10:59:07;;;;;;;;;;;;;;;24.90;46.53;98915.31;5093203;28;20329;-63
2023/09/21 11:01:32;;;;;;;;;;;;;;;24.85;47.31;98915.47;5083345;28;19982;-63
2023/09/21 11:03:58;;;;;;;;;;;;;;;24.85;47.29;98918.22;5073001;28;19913;-63
2023/09/21 11:06:25;;;;;;;;;;;;;;;24.84;47.38;98922.13;5073049;28;19934;-62
2023/09/21 11:08:52;;;;;;;;;;;;;;;24.78;47.32;98924.22;5072745;28;19928;-64
2023/09/21 11:11:19;;;;;;;;;;;;;;;24.62;48.02;98921.19;5057456;28;19913;-62
2023/09/21 11:13:49;;;;;;;;;;;;;;;24.64;47.87;98916.16;5053019;28;20372;-62
2023/09/21 11:16:15;;;;;;;;;;;;;;;24.56;48.09;98932.66;5066319;28;19916;-62
2023/09/21 11:18:40;;;;;;;;;;;;;;;24.56;48.21;98927.19;5072665;28;19917;-62
2023/09/21 11:21:08;;;;;;;;;;;;;;;24.46;48.51;98918.13;5054752;28;19912;-62
2023/09/21 11:23:34;;;;;;;;;;;;;;;24.41;48.64;98928.44;5072564;28;20034;-62
2023/09/21 11:26:00;;;;;;;;;;;;;;;24.43;48.59;98937.97;5072864;28;20319;-62
2023/09/21 11:28:26;;;;;;;;;;;;;;;24.36;48.84;98937.63;5081349;28;20006;-61
2023/09/21 11:30:51;;;;;;;;;;;;;;;24.38;49.03;98924.41;5072736;28;19967;-62
2023/09/21 11:33:20;;;;;;;;;;;;;;;24.42;49.67;98927.31;5076215;28;19912;-62
2023/09/21 11:35:45;;;;;;;;;;;;;;;24.31;49.85;98933.13;5076325;28;19920;-61
2023/09/21 11:38:12;;;;;;;;;;;;;;;24.17;50.61;98939.91;5076509;28;20038;-61
2023/09/21 11:40:37;;;;;;;;;;;;;;;24.07;50.59;98944.56;5076089;28;19913;-61
2023/09/21 11:43:02;;;;;;;;;;;;;;;24.07;50.95;98941.84;5076064;28;19919;-61
2023/09/21 11:45:28;;;;;;;;;;;;;;;24.01;51.31;98936.81;5076012;28;20030;-61
2023/09/21 11:47:57;;;;;;;;;;;;;;;23.94;51.48;98950.97;5076171;28;20068;-62
2023/09/21 11:50:25;;;;;;;;;;;;;;;23.97;51.25;98950.34;5076047;28;19923;-62
2023/09/21 11:52:54;;;;;;;;;;;;;;;23.99;51.29;98947.28;5075886;28;20559;-62
2023/09/21 11:55:20;;;;;;;;;;;;;;;23.80;51.92;98964.84;5080695;28;19927;-62
2023/09/21 11:57:46;;;;;;;;;;;;;;;23.83;51.89;98958.72;5086726;28;19916;-62
2023/09/21 12:00:17;;;;;;;;;;;;;;;23.83;51.87;98964.22;5075692;28;19927;-61
2023/09/21 12:02:45;;;;;;;;;;;;;;;23.77;52.32;98963.53;5062684;28;19931;-62
2023/09/21 12:05:11;;;;;;;;;;;;;;;23.66;52.98;98966.84;5056079;28;19971;-62
2023/09/21 12:07:37;;;;;;;;;;;;;;;23.72;52.76;98962.88;5055335;28;19913;-62
2023/09/21 12:10:03;;;;;;;;;;;;;;;23.70;52.57;98970.56;5060401;28;19912;-62
2023/09/21 12:12:29;;;;;;;;;;;;;;;23.72;53.03;98969.16;5076136;28;20031;-62
2023/09/21 12:14:54;;;;;;;;;;;;;;;23.76;52.69;98974.81;5075802;28;20385;-62
2023/09/21 12:17:20;;;;;;;;;;;;;;;23.84;52.70;98963.06;5094437;28;19972;-62
2023/09/21 12:19:45;;;;;;;;;;;;;;;23.76;53.05;98963.84;5095999;28;19920;-62
2023/09/21 12:22:11;;;;;;;;;;;;;;;23.69;53.59;98980.72;5096032;28;19916;-62
2023/09/21 12:24:38;;;;;;;;;;;;;;;23.70;53.31;98982.38;5096060;28;19919;-62
2023/09/21 12:27:06;;;;;;;;;;;;;;;23.57;53.51;98973.13;5092962;28;19924;-63
2023/09/21 12:29:33;;;;;;;;;;;;;;;23.64;54.02;98971.84;5075714;28;19959;-63
2023/09/21 12:31:58;;;;;;;;;;;;;;;23.53;54.08;98966.66;5075676;28;19917;-63
2023/09/21 12:34:24;;;;;;;;;;;;;;;23.55;54.01;98971.81;5075874;28;19927;-63
2023/09/21 12:36:49;;;;;;;;;;;;;;;23.49;54.18;98970.34;5075237;28;20399;-63
2023/09/21 12:39:15;;;;;;;;;;;;;;;23.43;54.52;98977.09;5075425;28;19999;-63
2023/09/21 12:41:43;;;;;;;;;;;;;;;23.37;54.29;98974.50;5075404;28;19973;-63
2023/09/21 12:44:10;;;;;;;;;;;;;;;23.44;54.44;98965.00;5074522;28;19912;-63
2023/09/21 12:46:36;;;;;;;;;;;;;;;23.37;54.20;98973.69;5074971;28;19999;-63